sensor_id;sensor_type;location;lat;lon;timestamp;pressure;altitude;pressure_sealevel;temperature
10058;BMP180;5068;51.286;7.518;2023-06-14T00:00:50;99247.00;;;16.50
10058;BMP180;5068;51.286;7.518;2023-06-14T00:02:25;99249.00;;;16.50
10058;BMP180;5068;51.286;7.518;2023-06-14T00:03:58;99245.00;;;16.50
10058;BMP180;5068;51.286;7.518;2023-06-14T00:05:33;99245.00;;;16.40
10058;BMP180;5068;51.286;7.518;2023-06-14T00:07:10;99250.00;;;16.40
10058;BMP180;5068;51.286;7.518;2023-06-14T00:08:46;99245.00;;;16.30
10058;BMP180;5068;51.286;7.518;2023-06-14T00:10:21;99250.00;;;16.30
10058;BMP180;5068;51.286;7.518;2023-06-14T00:11:54;99245.00;;;16.30
10058;BMP180;5068;51.286;7.518;2023-06-14T00:13:27;99245.00;;;16.30
10058;BMP180;5068;51.286;7.518;2023-06-14T00:15:00;99243.00;;;16.20
10058;BMP180;5068;51.286;7.518;2023-06-14T00:16:33;99243.00;;;16.20
10058;BMP180;5068;51.286;7.518;2023-06-14T00:18:07;99251.00;;;16.10
10058;BMP180;5068;51.286;7.518;2023-06-14T00:19:43;99253.00;;;16.10
10058;BMP180;5068;51.286;7.518;2023-06-14T00:21:18;99257.00;;;16.10
10058;BMP180;5068;51.286;7.518;2023-06-14T00:22:51;99246.00;;;16.00
10058;BMP180;5068;51.286;7.518;2023-06-14T00:24:24;99244.00;;;16.00
10058;BMP180;5068;51.286;7.518;2023-06-14T00:25:59;99251.00;;;16.00
10058;BMP180;5068;51.286;7.518;2023-06-14T00:27:33;99249.00;;;15.90
10058;BMP180;5068;51.286;7.518;2023-06-14T00:29:05;99242.00;;;15.90
10058;BMP180;5068;51.286;7.518;2023-06-14T00:30:39;99253.00;;;15.90
10058;BMP180;5068;51.286;7.518;2023-06-14T00:32:12;99258.00;;;15.80
10058;BMP180;5068;51.286;7.518;2023-06-14T00:33:45;99252.00;;;15.80
10058;BMP180;5068;51.286;7.518;2023-06-14T00:35:18;99254.00;;;15.80
10058;BMP180;5068;51.286;7.518;2023-06-14T00:36:50;99255.00;;;15.70
10058;BMP180;5068;51.286;7.518;2023-06-14T00:38:24;99264.00;;;15.70
10058;BMP180;5068;51.286;7.518;2023-06-14T00:39:57;99248.00;;;15.70
10058;BMP180;5068;51.286;7.518;2023-06-14T00:41:32;99256.00;;;15.60
10058;BMP180;5068;51.286;7.518;2023-06-14T00:43:05;99258.00;;;15.60
10058;BMP180;5068;51.286;7.518;2023-06-14T00:44:40;99256.00;;;15.50
10058;BMP180;5068;51.286;7.518;2023-06-14T00:46:13;99256.00;;;15.50
10058;BMP180;5068;51.286;7.518;2023-06-14T00:47:49;99260.00;;;15.50
10058;BMP180;5068;51.286;7.518;2023-06-14T00:49:25;99261.00;;;15.40
10058;BMP180;5068;51.286;7.518;2023-06-14T00:51:00;99264.00;;;15.40
10058;BMP180;5068;51.286;7.518;2023-06-14T00:52:37;99266.00;;;15.40
10058;BMP180;5068;51.286;7.518;2023-06-14T00:54:11;99263.00;;;15.30
10058;BMP180;5068;51.286;7.518;2023-06-14T00:55:45;99271.00;;;15.30
10058;BMP180;5068;51.286;7.518;2023-06-14T00:57:22;99274.00;;;15.30
10058;BMP180;5068;51.286;7.518;2023-06-14T00:58:57;99274.00;;;15.30
10058;BMP180;5068;51.286;7.518;2023-06-14T01:00:32;99272.00;;;15.20
10058;BMP180;5068;51.286;7.518;2023-06-14T01:02:23;99273.00;;;15.20
10058;BMP180;5068;51.286;7.518;2023-06-14T01:04:16;99278.00;;;15.20
10058;BMP180;5068;51.286;7.518;2023-06-14T01:06:01;99269.00;;;15.20
10058;BMP180;5068;51.286;7.518;2023-06-14T01:08:05;99269.00;;;15.20
10058;BMP180;5068;51.286;7.518;2023-06-14T01:09:58;99281.00;;;15.10
10058;BMP180;5068;51.286;7.518;2023-06-14T01:11:43;99273.00;;;15.10
10058;BMP180;5068;51.286;7.518;2023-06-14T01:13:30;99269.00;;;15.00
10058;BMP180;5068;51.286;7.518;2023-06-14T01:15:07;99285.00;;;15.00
10058;BMP180;5068;51.286;7.518;2023-06-14T01:16:40;99272.00;;;15.00
10058;BMP180;5068;51.286;7.518;2023-06-14T01:18:14;99272.00;;;15.00
10058;BMP180;5068;51.286;7.518;2023-06-14T01:19:51;99278.00;;;15.00
10058;BMP180;5068;51.286;7.518;2023-06-14T01:21:30;99278.00;;;14.90
10058;BMP180;5068;51.286;7.518;2023-06-14T01:23:07;99270.00;;;14.90
10058;BMP180;5068;51.286;7.518;2023-06-14T01:24:39;99277.00;;;14.90
10058;BMP180;5068;51.286;7.518;2023-06-14T01:26:16;99273.00;;;14.90
10058;BMP180;5068;51.286;7.518;2023-06-14T01:27:52;99275.00;;;14.90
10058;BMP180;5068;51.286;7.518;2023-06-14T01:29:27;99271.00;;;14.90
10058;BMP180;5068;51.286;7.518;2023-06-14T01:31:07;99275.00;;;14.80
10058;BMP180;5068;51.286;7.518;2023-06-14T01:32:41;99265.00;;;14.80
10058;BMP180;5068;51.286;7.518;2023-06-14T01:34:15;99275.00;;;14.80
10058;BMP180;5068;51.286;7.518;2023-06-14T01:35:51;99275.00;;;14.80
10058;BMP180;5068;51.286;7.518;2023-06-14T01:37:25;99274.00;;;14.80
10058;BMP180;5068;51.286;7.518;2023-06-14T01:39:00;99269.00;;;14.70
10058;BMP180;5068;51.286;7.518;2023-06-14T01:40:37;99269.00;;;14.70
10058;BMP180;5068;51.286;7.518;2023-06-14T01:42:14;99272.00;;;14.70
10058;BMP180;5068;51.286;7.518;2023-06-14T01:43:50;99262.00;;;14.70
10058;BMP180;5068;51.286;7.518;2023-06-14T01:45:23;99272.00;;;14.60
10058;BMP180;5068;51.286;7.518;2023-06-14T01:46:57;99267.00;;;14.60
10058;BMP180;5068;51.286;7.518;2023-06-14T01:48:29;99258.00;;;14.60
10058;BMP180;5068;51.286;7.518;2023-06-14T01:50:05;99273.00;;;14.60
10058;BMP180;5068;51.286;7.518;2023-06-14T01:51:39;99270.00;;;14.60
10058;BMP180;5068;51.286;7.518;2023-06-14T01:53:13;99269.00;;;14.60
10058;BMP180;5068;51.286;7.518;2023-06-14T01:54:48;99262.00;;;14.60
10058;BMP180;5068;51.286;7.518;2023-06-14T01:56:21;99256.00;;;14.50
10058;BMP180;5068;51.286;7.518;2023-06-14T01:57:54;99277.00;;;14.50
10058;BMP180;5068;51.286;7.518;2023-06-14T01:59:28;99280.00;;;14.50
10058;BMP180;5068;51.286;7.518;2023-06-14T02:01:00;99269.00;;;14.50
10058;BMP180;5068;51.286;7.518;2023-06-14T02:02:34;99278.00;;;14.40
10058;BMP180;5068;51.286;7.518;2023-06-14T02:04:08;99273.00;;;14.40
10058;BMP180;5068;51.286;7.518;2023-06-14T02:05:43;99264.00;;;14.40
10058;BMP180;5068;51.286;7.518;2023-06-14T02:07:16;99268.00;;;14.40
10058;BMP180;5068;51.286;7.518;2023-06-14T02:08:49;99264.00;;;14.30
10058;BMP180;5068;51.286;7.518;2023-06-14T02:10:24;99265.00;;;14.30
10058;BMP180;5068;51.286;7.518;2023-06-14T02:11:59;99271.00;;;14.30
10058;BMP180;5068;51.286;7.518;2023-06-14T02:13:34;99280.00;;;14.30
10058;BMP180;5068;51.286;7.518;2023-06-14T02:15:09;99275.00;;;14.30
10058;BMP180;5068;51.286;7.518;2023-06-14T02:16:49;99278.00;;;14.30
10058;BMP180;5068;51.286;7.518;2023-06-14T02:18:23;99271.00;;;14.30
10058;BMP180;5068;51.286;7.518;2023-06-14T02:19:56;99273.00;;;14.30
10058;BMP180;5068;51.286;7.518;2023-06-14T02:21:31;99269.00;;;14.30
10058;BMP180;5068;51.286;7.518;2023-06-14T02:23:04;99271.00;;;14.30
10058;BMP180;5068;51.286;7.518;2023-06-14T02:24:39;99271.00;;;14.30
10058;BMP180;5068;51.286;7.518;2023-06-14T02:26:14;99264.00;;;14.20
10058;BMP180;5068;51.286;7.518;2023-06-14T02:27:48;99272.00;;;14.20
10058;BMP180;5068;51.286;7.518;2023-06-14T02:29:22;99264.00;;;14.20
10058;BMP180;5068;51.286;7.518;2023-06-14T02:30:55;99272.00;;;14.20
10058;BMP180;5068;51.286;7.518;2023-06-14T02:32:29;99271.00;;;14.20
10058;BMP180;5068;51.286;7.518;2023-06-14T02:34:02;99269.00;;;14.10
10058;BMP180;5068;51.286;7.518;2023-06-14T02:35:35;99273.00;;;14.10
10058;BMP180;5068;51.286;7.518;2023-06-14T02:37:10;99274.00;;;14.10
10058;BMP180;5068;51.286;7.518;2023-06-14T02:38:45;99274.00;;;14.10
10058;BMP180;5068;51.286;7.518;2023-06-14T02:40:19;99276.00;;;14.10
10058;BMP180;5068;51.286;7.518;2023-06-14T02:41:54;99276.00;;;14.00
10058;BMP180;5068;51.286;7.518;2023-06-14T02:43:29;99266.00;;;14.00
10058;BMP180;5068;51.286;7.518;2023-06-14T02:45:04;99268.00;;;14.00
10058;BMP180;5068;51.286;7.518;2023-06-14T02:46:37;99266.00;;;13.90
10058;BMP180;5068;51.286;7.518;2023-06-14T02:48:10;99259.00;;;13.90
10058;BMP180;5068;51.286;7.518;2023-06-14T02:49:45;99279.00;;;13.90
10058;BMP180;5068;51.286;7.518;2023-06-14T02:51:19;99274.00;;;13.80
10058;BMP180;5068;51.286;7.518;2023-06-14T02:52:53;99263.00;;;13.70
10058;BMP180;5068;51.286;7.518;2023-06-14T02:54:28;99269.00;;;13.80
10058;BMP180;5068;51.286;7.518;2023-06-14T02:56:00;99284.00;;;13.80
10058;BMP180;5068;51.286;7.518;2023-06-14T02:57:37;99272.00;;;13.70
10058;BMP180;5068;51.286;7.518;2023-06-14T02:59:12;99286.00;;;13.70
10058;BMP180;5068;51.286;7.518;2023-06-14T03:00:47;99277.00;;;13.80
10058;BMP180;5068;51.286;7.518;2023-06-14T03:02:20;99283.00;;;13.80
10058;BMP180;5068;51.286;7.518;2023-06-14T03:03:53;99284.00;;;13.80
10058;BMP180;5068;51.286;7.518;2023-06-14T03:05:26;99281.00;;;13.80
10058;BMP180;5068;51.286;7.518;2023-06-14T03:07:00;99290.00;;;13.80
10058;BMP180;5068;51.286;7.518;2023-06-14T03:08:35;99287.00;;;13.80
10058;BMP180;5068;51.286;7.518;2023-06-14T03:10:16;99281.00;;;13.80
10058;BMP180;5068;51.286;7.518;2023-06-14T03:11:50;99284.00;;;13.80
10058;BMP180;5068;51.286;7.518;2023-06-14T03:13:23;99300.00;;;13.70
10058;BMP180;5068;51.286;7.518;2023-06-14T03:14:58;99288.00;;;13.70
10058;BMP180;5068;51.286;7.518;2023-06-14T03:16:35;99286.00;;;13.70
10058;BMP180;5068;51.286;7.518;2023-06-14T03:18:09;99289.00;;;13.70
10058;BMP180;5068;51.286;7.518;2023-06-14T03:19:45;99281.00;;;13.70
10058;BMP180;5068;51.286;7.518;2023-06-14T03:21:20;99288.00;;;13.70
10058;BMP180;5068;51.286;7.518;2023-06-14T03:22:54;99290.00;;;13.70
10058;BMP180;5068;51.286;7.518;2023-06-14T03:24:27;99308.00;;;13.60
10058;BMP180;5068;51.286;7.518;2023-06-14T03:26:03;99291.00;;;13.60
10058;BMP180;5068;51.286;7.518;2023-06-14T03:27:37;99289.00;;;13.60
10058;BMP180;5068;51.286;7.518;2023-06-14T03:29:12;99304.00;;;13.60
10058;BMP180;5068;51.286;7.518;2023-06-14T03:30:46;99290.00;;;13.60
10058;BMP180;5068;51.286;7.518;2023-06-14T03:32:19;99300.00;;;13.60
10058;BMP180;5068;51.286;7.518;2023-06-14T03:33:53;99294.00;;;13.60
10058;BMP180;5068;51.286;7.518;2023-06-14T03:35:28;99318.00;;;13.60
10058;BMP180;5068;51.286;7.518;2023-06-14T03:37:00;99304.00;;;13.50
10058;BMP180;5068;51.286;7.518;2023-06-14T03:38:34;99312.00;;;13.50
10058;BMP180;5068;51.286;7.518;2023-06-14T03:40:11;99317.00;;;13.50
10058;BMP180;5068;51.286;7.518;2023-06-14T03:41:47;99320.00;;;13.50
10058;BMP180;5068;51.286;7.518;2023-06-14T03:43:21;99330.00;;;13.50
10058;BMP180;5068;51.286;7.518;2023-06-14T03:44:56;99334.00;;;13.50
10058;BMP180;5068;51.286;7.518;2023-06-14T03:46:29;99339.00;;;13.50
10058;BMP180;5068;51.286;7.518;2023-06-14T03:48:03;99334.00;;;13.50
10058;BMP180;5068;51.286;7.518;2023-06-14T03:49:39;99339.00;;;13.50
10058;BMP180;5068;51.286;7.518;2023-06-14T03:51:13;99331.00;;;13.50
10058;BMP180;5068;51.286;7.518;2023-06-14T03:52:48;99339.00;;;13.50
10058;BMP180;5068;51.286;7.518;2023-06-14T03:54:23;99340.00;;;13.50
10058;BMP180;5068;51.286;7.518;2023-06-14T03:56:00;99340.00;;;13.50
10058;BMP180;5068;51.286;7.518;2023-06-14T03:57:43;99350.00;;;13.50
10058;BMP180;5068;51.286;7.518;2023-06-14T03:59:20;99352.00;;;13.50
10058;BMP180;5068;51.286;7.518;2023-06-14T04:00:54;99353.00;;;13.50
10058;BMP180;5068;51.286;7.518;2023-06-14T04:02:29;99360.00;;;13.50
10058;BMP180;5068;51.286;7.518;2023-06-14T04:04:04;99356.00;;;13.50
10058;BMP180;5068;51.286;7.518;2023-06-14T04:05:37;99356.00;;;13.50
10058;BMP180;5068;51.286;7.518;2023-06-14T04:07:14;99355.00;;;13.40
10058;BMP180;5068;51.286;7.518;2023-06-14T04:08:51;99352.00;;;13.40
10058;BMP180;5068;51.286;7.518;2023-06-14T04:10:24;99364.00;;;13.40
10058;BMP180;5068;51.286;7.518;2023-06-14T04:11:57;99358.00;;;13.40
10058;BMP180;5068;51.286;7.518;2023-06-14T04:13:31;99368.00;;;13.40
10058;BMP180;5068;51.286;7.518;2023-06-14T04:15:09;99366.00;;;13.40
10058;BMP180;5068;51.286;7.518;2023-06-14T04:16:49;99366.00;;;13.40
10058;BMP180;5068;51.286;7.518;2023-06-14T04:18:24;99358.00;;;13.40
10058;BMP180;5068;51.286;7.518;2023-06-14T04:20:00;99356.00;;;13.40
10058;BMP180;5068;51.286;7.518;2023-06-14T04:21:35;99362.00;;;13.40
10058;BMP180;5068;51.286;7.518;2023-06-14T04:23:12;99362.00;;;13.40
10058;BMP180;5068;51.286;7.518;2023-06-14T04:24:46;99374.00;;;13.40
10058;BMP180;5068;51.286;7.518;2023-06-14T04:26:32;99377.00;;;13.40
10058;BMP180;5068;51.286;7.518;2023-06-14T04:28:07;99371.00;;;13.40
10058;BMP180;5068;51.286;7.518;2023-06-14T04:29:41;99383.00;;;13.40
10058;BMP180;5068;51.286;7.518;2023-06-14T04:31:17;99373.00;;;13.40
10058;BMP180;5068;51.286;7.518;2023-06-14T04:32:52;99385.00;;;13.40
10058;BMP180;5068;51.286;7.518;2023-06-14T04:34:29;99378.00;;;13.40
10058;BMP180;5068;51.286;7.518;2023-06-14T04:36:04;99368.00;;;13.40
10058;BMP180;5068;51.286;7.518;2023-06-14T04:37:37;99373.00;;;13.40
10058;BMP180;5068;51.286;7.518;2023-06-14T04:39:14;99370.00;;;13.40
10058;BMP180;5068;51.286;7.518;2023-06-14T04:40:47;99378.00;;;13.50
10058;BMP180;5068;51.286;7.518;2023-06-14T04:42:23;99373.00;;;13.50
10058;BMP180;5068;51.286;7.518;2023-06-14T04:44:04;99385.00;;;13.50
10058;BMP180;5068;51.286;7.518;2023-06-14T04:45:43;99384.00;;;13.50
10058;BMP180;5068;51.286;7.518;2023-06-14T04:47:19;99389.00;;;13.60
10058;BMP180;5068;51.286;7.518;2023-06-14T04:48:54;99384.00;;;13.60
10058;BMP180;5068;51.286;7.518;2023-06-14T04:50:28;99383.00;;;13.60
10058;BMP180;5068;51.286;7.518;2023-06-14T04:52:05;99383.00;;;13.60
10058;BMP180;5068;51.286;7.518;2023-06-14T04:53:42;99382.00;;;13.60
10058;BMP180;5068;51.286;7.518;2023-06-14T04:55:16;99379.00;;;13.70
10058;BMP180;5068;51.286;7.518;2023-06-14T04:56:51;99388.00;;;13.70
10058;BMP180;5068;51.286;7.518;2023-06-14T04:58:27;99394.00;;;13.70
10058;BMP180;5068;51.286;7.518;2023-06-14T05:00:01;99392.00;;;13.80
10058;BMP180;5068;51.286;7.518;2023-06-14T05:01:37;99387.00;;;13.80
10058;BMP180;5068;51.286;7.518;2023-06-14T05:03:10;99399.00;;;13.80
10058;BMP180;5068;51.286;7.518;2023-06-14T05:04:47;99385.00;;;13.90
10058;BMP180;5068;51.286;7.518;2023-06-14T05:06:21;99385.00;;;13.90
10058;BMP180;5068;51.286;7.518;2023-06-14T05:07:55;99392.00;;;13.90
10058;BMP180;5068;51.286;7.518;2023-06-14T05:09:28;99395.00;;;14.00
10058;BMP180;5068;51.286;7.518;2023-06-14T05:11:02;99387.00;;;14.00
10058;BMP180;5068;51.286;7.518;2023-06-14T05:12:35;99387.00;;;14.00
10058;BMP180;5068;51.286;7.518;2023-06-14T05:14:11;99384.00;;;14.00
10058;BMP180;5068;51.286;7.518;2023-06-14T05:15:44;99392.00;;;14.10
10058;BMP180;5068;51.286;7.518;2023-06-14T05:17:18;99385.00;;;14.10
10058;BMP180;5068;51.286;7.518;2023-06-14T05:18:52;99373.00;;;14.20
10058;BMP180;5068;51.286;7.518;2023-06-14T05:20:27;99385.00;;;14.20
10058;BMP180;5068;51.286;7.518;2023-06-14T05:22:00;99385.00;;;14.30
10058;BMP180;5068;51.286;7.518;2023-06-14T05:23:35;99382.00;;;14.30
10058;BMP180;5068;51.286;7.518;2023-06-14T05:25:08;99377.00;;;14.40
10058;BMP180;5068;51.286;7.518;2023-06-14T05:26:42;99389.00;;;14.50
10058;BMP180;5068;51.286;7.518;2023-06-14T05:28:15;99377.00;;;14.50
10058;BMP180;5068;51.286;7.518;2023-06-14T05:29:49;99392.00;;;14.60
10058;BMP180;5068;51.286;7.518;2023-06-14T05:31:33;99383.00;;;14.70
10058;BMP180;5068;51.286;7.518;2023-06-14T05:33:22;99385.00;;;14.80
10058;BMP180;5068;51.286;7.518;2023-06-14T05:34:56;99387.00;;;14.90
10058;BMP180;5068;51.286;7.518;2023-06-14T05:36:30;99387.00;;;14.90
10058;BMP180;5068;51.286;7.518;2023-06-14T05:38:04;99379.00;;;15.00
10058;BMP180;5068;51.286;7.518;2023-06-14T05:39:37;99379.00;;;15.10
10058;BMP180;5068;51.286;7.518;2023-06-14T05:41:11;99384.00;;;15.20
10058;BMP180;5068;51.286;7.518;2023-06-14T05:42:45;99384.00;;;15.20
10058;BMP180;5068;51.286;7.518;2023-06-14T05:44:18;99389.00;;;15.30
10058;BMP180;5068;51.286;7.518;2023-06-14T05:45:51;99390.00;;;15.40
10058;BMP180;5068;51.286;7.518;2023-06-14T05:47:25;99399.00;;;15.40
10058;BMP180;5068;51.286;7.518;2023-06-14T05:48:59;99397.00;;;15.50
10058;BMP180;5068;51.286;7.518;2023-06-14T05:50:32;99390.00;;;15.50
10058;BMP180;5068;51.286;7.518;2023-06-14T05:52:08;99397.00;;;15.60
10058;BMP180;5068;51.286;7.518;2023-06-14T05:53:42;99394.00;;;15.60
10058;BMP180;5068;51.286;7.518;2023-06-14T05:55:16;99392.00;;;15.70
10058;BMP180;5068;51.286;7.518;2023-06-14T05:56:50;99406.00;;;15.80
10058;BMP180;5068;51.286;7.518;2023-06-14T05:58:24;99402.00;;;15.90
10058;BMP180;5068;51.286;7.518;2023-06-14T05:59:57;99400.00;;;16.00
10058;BMP180;5068;51.286;7.518;2023-06-14T06:01:30;99400.00;;;16.00
10058;BMP180;5068;51.286;7.518;2023-06-14T06:03:06;99404.00;;;16.10
10058;BMP180;5068;51.286;7.518;2023-06-14T06:04:41;99396.00;;;16.20
10058;BMP180;5068;51.286;7.518;2023-06-14T06:06:14;99398.00;;;16.30
10058;BMP180;5068;51.286;7.518;2023-06-14T06:07:49;99407.00;;;16.40
10058;BMP180;5068;51.286;7.518;2023-06-14T06:09:23;99403.00;;;16.40
10058;BMP180;5068;51.286;7.518;2023-06-14T06:10:57;99406.00;;;16.50
10058;BMP180;5068;51.286;7.518;2023-06-14T06:12:30;99404.00;;;16.60
10058;BMP180;5068;51.286;7.518;2023-06-14T06:14:03;99406.00;;;16.70
10058;BMP180;5068;51.286;7.518;2023-06-14T06:15:36;99399.00;;;16.80
10058;BMP180;5068;51.286;7.518;2023-06-14T06:17:10;99403.00;;;16.80
10058;BMP180;5068;51.286;7.518;2023-06-14T06:18:46;99392.00;;;16.90
10058;BMP180;5068;51.286;7.518;2023-06-14T06:20:23;99399.00;;;17.00
10058;BMP180;5068;51.286;7.518;2023-06-14T06:22:02;99401.00;;;17.10
10058;BMP180;5068;51.286;7.518;2023-06-14T06:23:40;99397.00;;;17.10
10058;BMP180;5068;51.286;7.518;2023-06-14T06:25:14;99387.00;;;17.20
10058;BMP180;5068;51.286;7.518;2023-06-14T06:26:50;99398.00;;;17.30
10058;BMP180;5068;51.286;7.518;2023-06-14T06:28:24;99399.00;;;17.40
10058;BMP180;5068;51.286;7.518;2023-06-14T06:29:57;99396.00;;;17.50
10058;BMP180;5068;51.286;7.518;2023-06-14T06:31:31;99381.00;;;17.60
10058;BMP180;5068;51.286;7.518;2023-06-14T06:33:05;99402.00;;;17.70
10058;BMP180;5068;51.286;7.518;2023-06-14T06:34:39;99394.00;;;17.80
10058;BMP180;5068;51.286;7.518;2023-06-14T06:36:13;99398.00;;;17.90
10058;BMP180;5068;51.286;7.518;2023-06-14T06:37:50;99399.00;;;18.00
10058;BMP180;5068;51.286;7.518;2023-06-14T06:39:26;99410.00;;;18.10
10058;BMP180;5068;51.286;7.518;2023-06-14T06:41:00;99400.00;;;18.20
10058;BMP180;5068;51.286;7.518;2023-06-14T06:42:33;99410.00;;;18.30
10058;BMP180;5068;51.286;7.518;2023-06-14T06:44:10;99393.00;;;18.40
10058;BMP180;5068;51.286;7.518;2023-06-14T06:45:44;99401.00;;;18.50
10058;BMP180;5068;51.286;7.518;2023-06-14T06:47:20;99404.00;;;18.60
10058;BMP180;5068;51.286;7.518;2023-06-14T06:48:54;99405.00;;;18.70
10058;BMP180;5068;51.286;7.518;2023-06-14T06:50:28;99398.00;;;18.80
10058;BMP180;5068;51.286;7.518;2023-06-14T06:52:03;99409.00;;;18.90
10058;BMP180;5068;51.286;7.518;2023-06-14T06:53:38;99408.00;;;19.00
10058;BMP180;5068;51.286;7.518;2023-06-14T06:55:20;99411.00;;;19.10
10058;BMP180;5068;51.286;7.518;2023-06-14T06:56:55;99414.00;;;19.20
10058;BMP180;5068;51.286;7.518;2023-06-14T06:58:29;99425.00;;;19.40
10058;BMP180;5068;51.286;7.518;2023-06-14T07:00:04;99423.00;;;19.50
10058;BMP180;5068;51.286;7.518;2023-06-14T07:01:40;99431.00;;;19.60
10058;BMP180;5068;51.286;7.518;2023-06-14T07:03:13;99426.00;;;19.70
10058;BMP180;5068;51.286;7.518;2023-06-14T07:04:48;99429.00;;;19.80
10058;BMP180;5068;51.286;7.518;2023-06-14T07:06:22;99423.00;;;19.90
10058;BMP180;5068;51.286;7.518;2023-06-14T07:08:00;99414.00;;;20.00
10058;BMP180;5068;51.286;7.518;2023-06-14T07:09:33;99412.00;;;20.10
10058;BMP180;5068;51.286;7.518;2023-06-14T07:11:09;99417.00;;;20.20
10058;BMP180;5068;51.286;7.518;2023-06-14T07:12:43;99415.00;;;20.30
10058;BMP180;5068;51.286;7.518;2023-06-14T07:14:18;99415.00;;;20.40
10058;BMP180;5068;51.286;7.518;2023-06-14T07:15:58;99411.00;;;20.50
10058;BMP180;5068;51.286;7.518;2023-06-14T07:17:33;99406.00;;;20.60
10058;BMP180;5068;51.286;7.518;2023-06-14T07:19:07;99412.00;;;20.70
10058;BMP180;5068;51.286;7.518;2023-06-14T07:20:41;99410.00;;;20.80
10058;BMP180;5068;51.286;7.518;2023-06-14T07:22:15;99415.00;;;20.90
10058;BMP180;5068;51.286;7.518;2023-06-14T07:23:49;99415.00;;;21.00
10058;BMP180;5068;51.286;7.518;2023-06-14T07:25:23;99414.00;;;21.10
10058;BMP180;5068;51.286;7.518;2023-06-14T07:26:59;99416.00;;;21.20
10058;BMP180;5068;51.286;7.518;2023-06-14T07:28:34;99420.00;;;21.30
10058;BMP180;5068;51.286;7.518;2023-06-14T07:30:09;99421.00;;;21.40
10058;BMP180;5068;51.286;7.518;2023-06-14T07:31:43;99423.00;;;21.40
10058;BMP180;5068;51.286;7.518;2023-06-14T07:33:17;99418.00;;;21.50
10058;BMP180;5068;51.286;7.518;2023-06-14T07:34:51;99424.00;;;21.60
10058;BMP180;5068;51.286;7.518;2023-06-14T07:36:24;99408.00;;;21.70
10058;BMP180;5068;51.286;7.518;2023-06-14T07:37:58;99418.00;;;21.80
10058;BMP180;5068;51.286;7.518;2023-06-14T07:39:32;99409.00;;;21.90
10058;BMP180;5068;51.286;7.518;2023-06-14T07:41:05;99414.00;;;22.00
10058;BMP180;5068;51.286;7.518;2023-06-14T07:42:41;99407.00;;;22.10
10058;BMP180;5068;51.286;7.518;2023-06-14T07:44:15;99425.00;;;22.20
10058;BMP180;5068;51.286;7.518;2023-06-14T07:45:49;99417.00;;;22.30
10058;BMP180;5068;51.286;7.518;2023-06-14T07:47:38;99420.00;;;22.40
10058;BMP180;5068;51.286;7.518;2023-06-14T07:49:12;99419.00;;;22.50
10058;BMP180;5068;51.286;7.518;2023-06-14T07:50:45;99412.00;;;22.60
10058;BMP180;5068;51.286;7.518;2023-06-14T07:52:19;99418.00;;;22.60
10058;BMP180;5068;51.286;7.518;2023-06-14T07:53:56;99415.00;;;22.70
10058;BMP180;5068;51.286;7.518;2023-06-14T07:55:30;99426.00;;;22.80
10058;BMP180;5068;51.286;7.518;2023-06-14T07:57:17;99424.00;;;22.80
10058;BMP180;5068;51.286;7.518;2023-06-14T07:58:53;99432.00;;;22.90
10058;BMP180;5068;51.286;7.518;2023-06-14T08:00:27;99426.00;;;22.90
10058;BMP180;5068;51.286;7.518;2023-06-14T08:02:00;99423.00;;;23.00
10058;BMP180;5068;51.286;7.518;2023-06-14T08:03:34;99421.00;;;23.10
10058;BMP180;5068;51.286;7.518;2023-06-14T08:05:10;99432.00;;;23.10
10058;BMP180;5068;51.286;7.518;2023-06-14T08:06:45;99440.00;;;23.20
10058;BMP180;5068;51.286;7.518;2023-06-14T08:08:20;99431.00;;;23.20
10058;BMP180;5068;51.286;7.518;2023-06-14T08:09:54;99425.00;;;23.20
10058;BMP180;5068;51.286;7.518;2023-06-14T08:11:28;99439.00;;;23.30
10058;BMP180;5068;51.286;7.518;2023-06-14T08:13:02;99439.00;;;23.30
10058;BMP180;5068;51.286;7.518;2023-06-14T08:14:38;99439.00;;;23.40
10058;BMP180;5068;51.286;7.518;2023-06-14T08:16:12;99428.00;;;23.40
10058;BMP180;5068;51.286;7.518;2023-06-14T08:17:46;99432.00;;;23.50
10058;BMP180;5068;51.286;7.518;2023-06-14T08:19:20;99430.00;;;23.50
10058;BMP180;5068;51.286;7.518;2023-06-14T08:20:53;99423.00;;;23.60
10058;BMP180;5068;51.286;7.518;2023-06-14T08:22:29;99438.00;;;23.60
10058;BMP180;5068;51.286;7.518;2023-06-14T08:24:06;99442.00;;;23.60
10058;BMP180;5068;51.286;7.518;2023-06-14T08:25:40;99447.00;;;23.70
10058;BMP180;5068;51.286;7.518;2023-06-14T08:27:13;99433.00;;;23.70
10058;BMP180;5068;51.286;7.518;2023-06-14T08:28:47;99441.00;;;23.80
10058;BMP180;5068;51.286;7.518;2023-06-14T08:30:22;99436.00;;;23.80
10058;BMP180;5068;51.286;7.518;2023-06-14T08:31:56;99434.00;;;23.90
10058;BMP180;5068;51.286;7.518;2023-06-14T08:33:33;99431.00;;;23.90
10058;BMP180;5068;51.286;7.518;2023-06-14T08:35:08;99438.00;;;24.00
10058;BMP180;5068;51.286;7.518;2023-06-14T08:36:42;99433.00;;;24.00
10058;BMP180;5068;51.286;7.518;2023-06-14T08:38:15;99444.00;;;24.00
10058;BMP180;5068;51.286;7.518;2023-06-14T08:39:48;99443.00;;;24.00
10058;BMP180;5068;51.286;7.518;2023-06-14T08:41:22;99447.00;;;24.00
10058;BMP180;5068;51.286;7.518;2023-06-14T08:42:57;99443.00;;;24.10
10058;BMP180;5068;51.286;7.518;2023-06-14T08:44:31;99437.00;;;24.20
10058;BMP180;5068;51.286;7.518;2023-06-14T08:46:07;99442.00;;;24.20
10058;BMP180;5068;51.286;7.518;2023-06-14T08:47:45;99441.00;;;24.30
10058;BMP180;5068;51.286;7.518;2023-06-14T08:49:19;99449.00;;;24.30
10058;BMP180;5068;51.286;7.518;2023-06-14T08:50:55;99443.00;;;24.30
10058;BMP180;5068;51.286;7.518;2023-06-14T08:52:38;99442.00;;;24.40
10058;BMP180;5068;51.286;7.518;2023-06-14T08:54:17;99438.00;;;24.40
10058;BMP180;5068;51.286;7.518;2023-06-14T08:55:53;99442.00;;;24.40
10058;BMP180;5068;51.286;7.518;2023-06-14T08:57:28;99443.00;;;24.40
10058;BMP180;5068;51.286;7.518;2023-06-14T08:59:05;99438.00;;;24.40
10058;BMP180;5068;51.286;7.518;2023-06-14T09:00:42;99450.00;;;24.40
10058;BMP180;5068;51.286;7.518;2023-06-14T09:02:19;99439.00;;;24.40
10058;BMP180;5068;51.286;7.518;2023-06-14T09:03:55;99436.00;;;24.50
10058;BMP180;5068;51.286;7.518;2023-06-14T09:05:29;99446.00;;;24.50
10058;BMP180;5068;51.286;7.518;2023-06-14T09:07:03;99441.00;;;24.50
10058;BMP180;5068;51.286;7.518;2023-06-14T09:08:40;99435.00;;;24.50
10058;BMP180;5068;51.286;7.518;2023-06-14T09:10:16;99448.00;;;24.60
10058;BMP180;5068;51.286;7.518;2023-06-14T09:11:49;99446.00;;;24.60
10058;BMP180;5068;51.286;7.518;2023-06-14T09:13:23;99446.00;;;24.70
10058;BMP180;5068;51.286;7.518;2023-06-14T09:14:57;99440.00;;;24.70
10058;BMP180;5068;51.286;7.518;2023-06-14T09:16:32;99444.00;;;24.70